Bao An Cheng 69 — BVBD5 — position and weather

sailwx.info

Track history (hours):
 
Tides and Currents Weather Stations Pressure Air Temp Water Temp Dewpoint Dewpoint Depression Visibility Wind Speed Wind Dir Waves Ship Positions

Bao An Cheng 69

Last reported at 2017-Nov-19 08:11 UTC. Time now 2017-Nov-23 23:55 UTC.
Position N 24°49' E 118°44'.

Length 121 m; draft 6.1 m.

Type: Cargo ship. MMSI: 412703090.

Date/timePositionNaut miles runAvg speedWind from/ knotsBaromVisibWave heightAir tempDewpointWater temp
2017-Nov-19 08:11N 24°49' E 118°44'0 0.1
2017-Nov-19 06:49N 24°49' E 118°43'0 0.0
2017-Nov-19 06:13N 24°49' E 118°43'21 0.6
2017-Nov-17 19:26N 24°29' E 118°38'4 9.8
2017-Nov-17 18:59N 24°26' E 118°34'4 9.3
2017-Nov-17 18:30N 24°22' E 118°31'5 9.0
2017-Nov-17 17:56N 24°18' E 118°28'5 8.9
2017-Nov-17 17:23N 24°15' E 118°24'4 8.9
2017-Nov-17 16:59N 24°12' E 118°21'4 8.8
2017-Nov-17 16:30N 24°09' E 118°18'7 8.8
2017-Nov-17 15:40N 24°04' E 118°12'2 9.2
2017-Nov-17 15:27N 24°03' E 118°10'  
2017-Nov-15 08:51N 24°08' E 118°17'9 8.5
2017-Nov-15 07:50N 24°14' E 118°23'3 8.7
2017-Nov-15 07:30N 24°16' E 118°26'4 8.6
2017-Nov-15 07:00N 24°19' E 118°29'5 9.0
2017-Nov-15 06:30N 24°22' E 118°32'5 9.2
2017-Nov-15 06:00N 24°26' E 118°36'10 9.2
2017-Nov-15 04:54N 24°34' E 118°43'4 9.7
2017-Nov-15 04:28N 24°38' E 118°45'12 7.1
2017-Nov-15 02:51N 24°49' E 118°43'0 0.0
2017-Nov-14 16:52N 24°49' E 118°43'1 3.0
2017-Nov-14 16:29N 24°49' E 118°45'21 0.5
2017-Nov-13 01:16N 24°29' E 118°38'2 7.3
2017-Nov-13 00:58N 24°28' E 118°36'3 7.3
2017-Nov-13 00:30N 24°26' E 118°33'4 7.8
2017-Nov-13 00:00N 24°24' E 118°30'4 7.6
2017-Nov-12 23:30N 24°22' E 118°26'4 8.0
2017-Nov-12 23:00N 24°21' E 118°22'4 8.0
2017-Nov-12 22:30N 24°20' E 118°18'4 8.3
2017-Nov-12 22:00N 24°21' E 118°13'4 8.4
2017-Nov-12 21:30N 24°22' E 118°09'4 7.9
2017-Nov-12 21:00N 24°25' E 118°05'4 7.4
2017-Nov-12 20:30N 24°26' E 118°02'2 3.1
2017-Nov-12 20:00N 24°27' E 118°00'0 0.0
2017-Nov-12 19:28N 24°27' E 118°00'0 0.0
2017-Nov-12 18:34N 24°27' E 118°00'0 0.0
2017-Nov-12 17:04N 24°27' E 118°00'0 0.0
2017-Nov-12 16:58N 24°27' E 118°00'0 0.0
2017-Nov-12 16:28N 24°27' E 118°00'0 0.0
2017-Nov-12 14:25N 24°27' E 118°00'0 0.0
2017-Nov-12 13:25N 24°27' E 118°00'0 0.0
2017-Nov-12 12:55N 24°27' E 118°00'0 0.0
2017-Nov-12 11:49N 24°27' E 118°00'0 0.0
2017-Nov-12 11:13N 24°27' E 118°00'0 0.0
2017-Nov-12 10:55N 24°27' E 118°00'0 0.0
2017-Nov-12 10:28N 24°27' E 118°00'0 0.0
2017-Nov-12 09:58N 24°27' E 118°00'0 0.0
2017-Nov-12 09:10N 24°27' E 118°00'0 0.0
2017-Nov-12 08:52N 24°27' E 118°00'0 0.0
2017-Nov-12 08:25N 24°27' E 118°00'0 0.0
2017-Nov-12 07:58N 24°27' E 118°00'0 0.0
2017-Nov-12 07:25N 24°27' E 118°00'0 0.0
2017-Nov-12 05:34N 24°27' E 118°00'0 0.1
2017-Nov-12 05:30N 24°27' E 118°00'1 2.7
2017-Nov-12 05:00N 24°26' E 118°02'4 8.5
2017-Nov-12 04:30N 24°24' E 118°06'4 8.3
2017-Nov-12 04:00N 24°22' E 118°09'4 8.5
2017-Nov-12 03:30N 24°21' E 118°14'4 8.2
2017-Nov-12 03:00N 24°21' E 118°18'4 8.6
2017-Nov-12 02:30N 24°21' E 118°23'5 9.0
2017-Nov-12 02:00N 24°23' E 118°27'5 9.4
2017-Nov-12 01:30N 24°25' E 118°32'5 9.8
2017-Nov-12 01:00N 24°28' E 118°36'5 9.8
2017-Nov-12 00:29N 24°31' E 118°40'810.0
2017-Nov-11 23:44N 24°38' E 118°45'11 0.7
2017-Nov-11 06:29N 24°49' E 118°43'11 0.3
2017-Nov-09 16:08N 24°39' E 118°45'5 7.8
2017-Nov-09 15:33N 24°34' E 118°43'11 7.9
2017-Nov-09 14:12N 24°27' E 118°35'2 8.0
2017-Nov-09 14:00N 24°26' E 118°34'4 8.0
2017-Nov-09 13:29N 24°23' E 118°30'4 7.7
2017-Nov-09 13:00N 24°21' E 118°27'4 7.1
2017-Nov-09 12:30N 24°18' E 118°24'4 6.9
2017-Nov-09 11:58N 24°16' E 118°21'4 6.8
2017-Nov-09 11:27N 24°14' E 118°18'3 7.1
2017-Nov-09 11:00N 24°12' E 118°15'3 6.7
2017-Nov-09 10:30N 24°10' E 118°12'3 6.5
2017-Nov-09 10:00N 24°07' E 118°10'3 6.1
2017-Nov-09 09:30N 24°05' E 118°08'3 5.9
2017-Nov-09 09:00N 24°03' E 118°05'4 5.8
2017-Nov-09 08:18N 24°00' E 118°02'  
Track history (hours):
 
Tides and Currents Weather Stations Pressure Air Temp Water Temp Dewpoint Dewpoint Depression Visibility Wind Speed Wind Dir Waves Ship Positions

Bao An Cheng 69

Last reported at 2017-Nov-19 08:11 UTC. Time now 2017-Nov-23 23:55 UTC.
Position N 24°49' E 118°44'.

Length 121 m; draft 6.1 m.

Type: Cargo ship. MMSI: 412703090.

Date/timePositionNaut miles runAvg speedWind from/ knotsBaromVisibWave heightAir tempDewpointWater temp
2017-Nov-19 08:11N 24°49' E 118°44'0 0.1
2017-Nov-19 06:49N 24°49' E 118°43'0 0.0
2017-Nov-19 06:13N 24°49' E 118°43'21 0.6
2017-Nov-17 19:26N 24°29' E 118°38'4 9.8
2017-Nov-17 18:59N 24°26' E 118°34'4 9.3
2017-Nov-17 18:30N 24°22' E 118°31'5 9.0
2017-Nov-17 17:56N 24°18' E 118°28'5 8.9
2017-Nov-17 17:23N 24°15' E 118°24'4 8.9
2017-Nov-17 16:59N 24°12' E 118°21'4 8.8
2017-Nov-17 16:30N 24°09' E 118°18'7 8.8
2017-Nov-17 15:40N 24°04' E 118°12'2 9.2
2017-Nov-17 15:27N 24°03' E 118°10'  
2017-Nov-15 08:51N 24°08' E 118°17'9 8.5
2017-Nov-15 07:50N 24°14' E 118°23'3 8.7
2017-Nov-15 07:30N 24°16' E 118°26'4 8.6
2017-Nov-15 07:00N 24°19' E 118°29'5 9.0
2017-Nov-15 06:30N 24°22' E 118°32'5 9.2
2017-Nov-15 06:00N 24°26' E 118°36'10 9.2
2017-Nov-15 04:54N 24°34' E 118°43'4 9.7
2017-Nov-15 04:28N 24°38' E 118°45'12 7.1
2017-Nov-15 02:51N 24°49' E 118°43'0 0.0
2017-Nov-14 16:52N 24°49' E 118°43'1 3.0
2017-Nov-14 16:29N 24°49' E 118°45'21 0.5
2017-Nov-13 01:16N 24°29' E 118°38'2 7.3
2017-Nov-13 00:58N 24°28' E 118°36'3 7.3
2017-Nov-13 00:30N 24°26' E 118°33'4 7.8
2017-Nov-13 00:00N 24°24' E 118°30'4 7.6
2017-Nov-12 23:30N 24°22' E 118°26'4 8.0
2017-Nov-12 23:00N 24°21' E 118°22'4 8.0
2017-Nov-12 22:30N 24°20' E 118°18'4 8.3
2017-Nov-12 22:00N 24°21' E 118°13'4 8.4
2017-Nov-12 21:30N 24°22' E 118°09'4 7.9
2017-Nov-12 21:00N 24°25' E 118°05'4 7.4
2017-Nov-12 20:30N 24°26' E 118°02'2 3.1
2017-Nov-12 20:00N 24°27' E 118°00'0 0.0
2017-Nov-12 19:28N 24°27' E 118°00'0 0.0
2017-Nov-12 18:34N 24°27' E 118°00'0 0.0
2017-Nov-12 17:04N 24°27' E 118°00'0 0.0
2017-Nov-12 16:58N 24°27' E 118°00'0 0.0
2017-Nov-12 16:28N 24°27' E 118°00'0 0.0
2017-Nov-12 14:25N 24°27' E 118°00'0 0.0
2017-Nov-12 13:25N 24°27' E 118°00'0 0.0
2017-Nov-12 12:55N 24°27' E 118°00'0 0.0
2017-Nov-12 11:49N 24°27' E 118°00'0 0.0
2017-Nov-12 11:13N 24°27' E 118°00'0 0.0
2017-Nov-12 10:55N 24°27' E 118°00'0 0.0
2017-Nov-12 10:28N 24°27' E 118°00'0 0.0
2017-Nov-12 09:58N 24°27' E 118°00'0 0.0
2017-Nov-12 09:10N 24°27' E 118°00'0 0.0
2017-Nov-12 08:52N 24°27' E 118°00'0 0.0
2017-Nov-12 08:25N 24°27' E 118°00'0 0.0
2017-Nov-12 07:58N 24°27' E 118°00'0 0.0
2017-Nov-12 07:25N 24°27' E 118°00'0 0.0
2017-Nov-12 05:34N 24°27' E 118°00'0 0.1
2017-Nov-12 05:30N 24°27' E 118°00'1 2.7
2017-Nov-12 05:00N 24°26' E 118°02'4 8.5
2017-Nov-12 04:30N 24°24' E 118°06'4 8.3
2017-Nov-12 04:00N 24°22' E 118°09'4 8.5
2017-Nov-12 03:30N 24°21' E 118°14'4 8.2
2017-Nov-12 03:00N 24°21' E 118°18'4 8.6
2017-Nov-12 02:30N 24°21' E 118°23'5 9.0
2017-Nov-12 02:00N 24°23' E 118°27'5 9.4
2017-Nov-12 01:30N 24°25' E 118°32'5 9.8
2017-Nov-12 01:00N 24°28' E 118°36'5 9.8
2017-Nov-12 00:29N 24°31' E 118°40'810.0
2017-Nov-11 23:44N 24°38' E 118°45'11 0.7
2017-Nov-11 06:29N 24°49' E 118°43'11 0.3
2017-Nov-09 16:08N 24°39' E 118°45'5 7.8
2017-Nov-09 15:33N 24°34' E 118°43'11 7.9
2017-Nov-09 14:12N 24°27' E 118°35'2 8.0
2017-Nov-09 14:00N 24°26' E 118°34'4 8.0
2017-Nov-09 13:29N 24°23' E 118°30'4 7.7
2017-Nov-09 13:00N 24°21' E 118°27'4 7.1
2017-Nov-09 12:30N 24°18' E 118°24'4 6.9
2017-Nov-09 11:58N 24°16' E 118°21'4 6.8
2017-Nov-09 11:27N 24°14' E 118°18'3 7.1
2017-Nov-09 11:00N 24°12' E 118°15'3 6.7
2017-Nov-09 10:30N 24°10' E 118°12'3 6.5
2017-Nov-09 10:00N 24°07' E 118°10'3 6.1
2017-Nov-09 09:30N 24°05' E 118°08'3 5.9
2017-Nov-09 09:00N 24°03' E 118°05'4 5.8
2017-Nov-09 08:18N 24°00' E 118°02'  

Dump ship's entire track history